createdAt,value
2018-01-24T00:02:26.058Z,7.08
2018-01-24T00:04:54.389Z,7.07
2018-01-24T00:07:22.058Z,7.06
2018-01-24T00:09:49.535Z,7.12
2018-01-24T00:12:17.035Z,7.29
2018-01-24T00:14:44.575Z,7.45
2018-01-24T00:17:13.134Z,7.57
2018-01-24T00:19:40.788Z,7.65
2018-01-24T00:22:08.317Z,7.72
2018-01-24T00:24:35.809Z,7.79
2018-01-24T00:27:03.287Z,7.80
2018-01-24T00:29:30.760Z,7.87
2018-01-24T00:31:58.227Z,7.91
2018-01-24T00:34:25.695Z,7.87
2018-01-24T00:36:53.202Z,7.75
2018-01-24T00:39:20.662Z,7.66
2018-01-24T00:41:48.158Z,7.60
2018-01-24T00:44:15.660Z,7.53
2018-01-24T00:46:43.223Z,7.49
2018-01-24T00:49:10.697Z,7.44
2018-01-24T00:51:38.173Z,7.42
2018-01-24T00:54:05.708Z,7.39
2018-01-24T00:56:33.167Z,7.35
2018-01-24T00:59:00.934Z,7.40
2018-01-24T01:01:28.431Z,7.39
2018-01-24T01:03:55.927Z,7.38
2018-01-24T01:06:23.423Z,7.40
2018-01-24T01:08:50.892Z,7.39
2018-01-24T01:11:18.460Z,7.36
2018-01-24T01:13:45.922Z,7.39
2018-01-24T01:16:13.487Z,7.40
2018-01-24T01:18:40.962Z,7.41
2018-01-24T01:21:08.437Z,7.45
2018-01-24T01:23:35.909Z,7.45
2018-01-24T01:26:03.389Z,7.45
2018-01-24T01:28:30.919Z,7.46
2018-01-24T01:30:58.382Z,7.47
2018-01-24T01:33:25.855Z,7.49
2018-01-24T01:35:53.344Z,7.49
2018-01-24T01:38:20.823Z,7.50
2018-01-24T01:40:48.303Z,7.50
2018-01-24T01:43:15.770Z,7.51
2018-01-24T01:45:43.275Z,7.53
2018-01-24T01:48:10.744Z,7.51
2018-01-24T01:50:38.232Z,7.55
2018-01-24T01:53:05.748Z,7.54
2018-01-24T01:55:33.226Z,7.56
2018-01-24T01:58:00.783Z,7.57
2018-01-24T02:00:28.234Z,7.57
2018-01-24T02:02:55.693Z,7.56
2018-01-24T02:05:23.176Z,7.57
2018-01-24T02:07:50.665Z,7.55
2018-01-24T02:10:18.165Z,7.59
2018-01-24T02:12:45.628Z,7.62
2018-01-24T02:15:13.161Z,7.67
2018-01-24T02:17:40.648Z,7.65
2018-01-24T02:20:08.158Z,7.67
2018-01-24T02:22:35.642Z,7.69
2018-01-24T02:25:03.149Z,7.70
2018-01-24T02:27:30.619Z,7.68
2018-01-24T02:29:58.111Z,7.72
2018-01-24T02:32:25.556Z,7.76
2018-01-24T02:34:53.066Z,7.77
2018-01-24T02:37:20.533Z,7.75
2018-01-24T02:39:47.997Z,7.79
2018-01-24T02:42:20.397Z,7.80
2018-01-24T02:44:47.943Z,7.84
2018-01-24T02:47:15.397Z,7.86
2018-01-24T02:49:42.934Z,7.88
2018-01-24T02:52:10.396Z,7.89
2018-01-24T02:54:37.899Z,7.91
2018-01-24T02:57:05.366Z,7.94
2018-01-24T02:59:32.902Z,7.95
2018-01-24T03:02:00.362Z,7.99
2018-01-24T03:04:27.907Z,8.00
2018-01-24T03:06:55.390Z,7.99
2018-01-24T03:09:22.893Z,8.01
2018-01-24T03:11:50.359Z,8.02
2018-01-24T03:14:17.811Z,8.04
2018-01-24T03:16:45.276Z,8.06
2018-01-24T03:19:12.778Z,8.11
2018-01-24T03:21:40.366Z,8.11
2018-01-24T03:24:07.949Z,8.11
2018-01-24T03:26:35.477Z,8.16
2018-01-24T03:29:03.082Z,8.13
2018-01-24T03:31:30.531Z,8.14
2018-01-24T03:33:58.087Z,8.12
2018-01-24T03:36:25.535Z,8.14
2018-01-24T03:38:53.093Z,8.17
2018-01-24T03:41:20.679Z,8.18
2018-01-24T03:43:48.149Z,8.18
2018-01-24T03:46:15.630Z,8.17
2018-01-24T03:48:43.086Z,8.19
2018-01-24T03:51:10.570Z,8.18
2018-01-24T03:53:38.022Z,8.19
2018-01-24T03:56:05.512Z,8.18
2018-01-24T03:58:33.586Z,8.22
2018-01-24T04:01:01.040Z,8.26
2018-01-24T04:03:28.527Z,8.24
2018-01-24T04:05:55.991Z,8.29
2018-01-24T04:08:23.468Z,8.31
2018-01-24T04:10:50.926Z,8.32
2018-01-24T04:13:18.419Z,8.35
2018-01-24T04:15:45.849Z,8.38
2018-01-24T04:18:13.371Z,8.39
2018-01-24T04:20:40.819Z,8.40
2018-01-24T04:23:08.292Z,8.38
2018-01-24T04:25:35.736Z,8.40
2018-01-24T04:28:03.202Z,8.42
2018-01-24T04:30:30.650Z,8.41
2018-01-24T04:32:58.110Z,8.39
2018-01-24T04:35:25.563Z,8.39
2018-01-24T04:37:53.059Z,8.40
2018-01-24T04:40:20.533Z,8.41
2018-01-24T04:42:49.113Z,8.39
2018-01-24T04:45:16.605Z,8.42
2018-01-24T04:47:44.132Z,8.40
2018-01-24T04:50:11.578Z,8.41
2018-01-24T04:52:39.026Z,8.44
2018-01-24T04:55:06.523Z,8.46
2018-01-24T04:57:34.899Z,8.46
2018-01-24T05:00:02.381Z,8.47
2018-01-24T05:02:29.832Z,8.48
2018-01-24T05:04:57.324Z,8.47
2018-01-24T05:07:24.815Z,8.46
2018-01-24T05:09:52.420Z,8.45
2018-01-24T05:12:19.910Z,8.43
2018-01-24T05:14:47.374Z,8.48
2018-01-24T05:17:14.867Z,8.51
2018-01-24T05:19:42.446Z,8.53
2018-01-24T05:22:09.911Z,8.55
2018-01-24T05:24:37.392Z,8.54
2018-01-24T05:27:09.981Z,8.51
2018-01-24T05:29:37.436Z,8.50
2018-01-24T05:32:04.950Z,8.49
2018-01-24T05:34:32.721Z,8.48
2018-01-24T05:36:59.977Z,8.47
2018-01-24T05:39:27.449Z,8.45
2018-01-24T05:41:54.915Z,8.43
2018-01-24T05:44:22.468Z,8.42
2018-01-24T05:46:49.983Z,8.41
2018-01-24T05:49:18.383Z,8.38
2018-01-24T05:51:45.938Z,8.43
2018-01-24T05:54:13.554Z,8.43
2018-01-24T05:56:41.016Z,8.43
2018-01-24T05:59:08.468Z,8.40
2018-01-24T06:01:35.987Z,8.42
2018-01-24T06:04:03.514Z,8.41
2018-01-24T06:06:30.977Z,8.41
2018-01-24T06:08:58.484Z,8.42
2018-01-24T06:11:26.009Z,8.43
2018-01-24T06:13:53.608Z,8.42
2018-01-24T06:16:21.142Z,8.43
2018-01-24T06:18:49.214Z,8.46
2018-01-24T06:21:16.757Z,8.49
2018-01-24T06:23:45.342Z,8.51
2018-01-24T06:26:13.023Z,8.50
2018-01-24T06:28:40.603Z,8.50
2018-01-24T06:31:08.171Z,8.52
2018-01-24T06:33:35.735Z,8.52
2018-01-24T06:36:03.316Z,8.50
2018-01-24T06:38:30.797Z,8.50
2018-01-24T06:40:58.292Z,8.51
2018-01-24T06:43:25.782Z,8.52
2018-01-24T06:45:53.615Z,8.54
2018-01-24T06:48:21.094Z,8.51
2018-01-24T06:50:48.625Z,8.50
2018-01-24T06:53:16.156Z,8.53
2018-01-24T06:55:43.705Z,8.54
2018-01-24T06:58:11.290Z,8.57
2018-01-24T07:00:38.758Z,8.56
2018-01-24T07:03:06.244Z,8.57
2018-01-24T07:05:33.702Z,8.60
2018-01-24T07:08:02.055Z,8.65
2018-01-24T07:10:29.592Z,8.68
2018-01-24T07:13:08.931Z,8.71
2018-01-24T07:15:37.601Z,8.72
2018-01-24T07:18:10.889Z,8.77
2018-01-24T07:20:38.390Z,8.85
2018-01-24T07:23:05.977Z,8.98
2018-01-24T07:25:33.606Z,9.08
2018-01-24T07:28:01.123Z,9.13
2018-01-24T07:30:28.706Z,9.16
2018-01-24T07:32:56.222Z,9.22
2018-01-24T07:35:23.936Z,9.25
2018-01-24T07:37:51.865Z,9.26
2018-01-24T07:40:19.594Z,9.28
2018-01-24T07:48:32.083Z,9.30
2018-01-24T07:50:59.849Z,9.29
2018-01-24T07:53:27.368Z,9.29
2018-01-24T07:55:54.940Z,9.28
2018-01-24T07:58:22.470Z,9.26
2018-01-24T08:00:50.107Z,9.21
2018-01-24T08:03:17.674Z,9.18
2018-01-24T08:05:45.443Z,9.14
2018-01-24T08:08:12.959Z,9.19
2018-01-24T08:10:40.569Z,9.19
2018-01-24T08:13:08.153Z,9.22
2018-01-24T08:15:35.653Z,9.23
2018-01-24T08:18:03.139Z,9.25
2018-01-24T08:20:30.850Z,9.25
2018-01-24T08:22:58.333Z,9.22
2018-01-24T08:25:25.915Z,9.23
2018-01-24T08:27:54.071Z,9.25
2018-01-24T08:30:21.611Z,9.27
2018-01-24T08:32:49.165Z,9.26
2018-01-24T08:35:16.721Z,9.26
2018-01-24T08:37:44.237Z,9.28
2018-01-24T08:40:11.710Z,9.29
2018-01-24T08:42:39.253Z,9.34
2018-01-24T08:45:06.914Z,9.38
2018-01-24T08:47:34.553Z,9.44
2018-01-24T08:50:02.751Z,9.49
2018-01-24T08:52:30.234Z,9.60
2018-01-24T08:54:57.697Z,9.69
2018-01-24T08:57:25.399Z,9.73
2018-01-24T08:59:52.943Z,9.80
2018-01-24T09:02:20.909Z,9.88
2018-01-24T09:04:49.631Z,9.98
2018-01-24T09:07:17.776Z,10.06
2018-01-24T09:09:45.315Z,10.12
2018-01-24T09:12:14.051Z,10.13
2018-01-24T09:14:41.591Z,10.10
2018-01-24T09:17:09.084Z,10.11
2018-01-24T09:19:36.666Z,10.07
2018-01-24T09:22:04.138Z,10.08
2018-01-24T09:24:31.653Z,10.07
2018-01-24T09:26:59.191Z,10.09
2018-01-24T09:29:26.707Z,10.11
2018-01-24T09:31:54.286Z,10.14
2018-01-24T09:34:21.814Z,10.14
2018-01-24T09:36:49.365Z,10.14
2018-01-24T09:39:16.934Z,10.16
2018-01-24T09:41:44.549Z,10.18
2018-01-24T09:44:12.432Z,10.18
2018-01-24T09:46:39.893Z,10.18
2018-01-24T09:49:07.424Z,10.16
2018-01-24T09:51:34.994Z,10.16
2018-01-24T09:54:02.464Z,10.20
2018-01-24T09:56:30.098Z,10.25
2018-01-24T09:58:57.668Z,10.29
2018-01-24T10:01:25.154Z,10.35
2018-01-24T10:03:52.800Z,10.37
2018-01-24T10:06:20.364Z,10.44
2018-01-24T10:08:47.920Z,10.51
2018-01-24T10:11:15.454Z,10.58
2018-01-24T10:13:42.936Z,10.65
2018-01-24T10:16:10.470Z,10.73
2018-01-24T10:18:40.024Z,10.81
2018-01-24T10:21:09.067Z,10.87
2018-01-24T10:23:38.309Z,11.03
2018-01-24T10:26:07.527Z,11.16
2018-01-24T10:28:36.748Z,11.15
2018-01-24T10:31:05.861Z,11.15
2018-01-24T10:33:33.446Z,11.14
2018-01-24T10:36:01.178Z,11.15
2018-01-24T10:38:28.813Z,11.15
2018-01-24T10:40:56.458Z,11.16
2018-01-24T10:43:24.065Z,11.14
2018-01-24T10:45:51.604Z,11.19
2018-01-24T10:48:19.181Z,11.17
2018-01-24T10:50:46.727Z,11.15
2018-01-24T10:53:14.253Z,11.19
2018-01-24T10:55:41.797Z,11.25
2018-01-24T10:58:09.314Z,11.22
2018-01-24T11:00:36.816Z,11.34
2018-01-24T11:03:04.354Z,11.38
2018-01-24T11:05:31.920Z,11.45
2018-01-24T11:07:59.417Z,11.57
2018-01-24T11:10:26.973Z,11.65
2018-01-24T11:12:54.536Z,11.78
2018-01-24T11:15:22.028Z,11.85
2018-01-24T11:17:49.570Z,11.78
2018-01-24T11:20:17.163Z,11.81
2018-01-24T11:22:44.657Z,11.80
2018-01-24T11:25:12.228Z,11.79
2018-01-24T11:27:39.770Z,11.74
2018-01-24T11:30:07.544Z,11.89
2018-01-24T11:32:35.053Z,12.34
2018-01-24T11:35:02.578Z,13.07
2018-01-24T11:37:30.110Z,13.54
2018-01-24T11:39:57.679Z,13.99
2018-01-24T11:42:25.192Z,14.49
2018-01-24T11:44:52.679Z,14.91
2018-01-24T11:47:20.205Z,15.26
2018-01-24T11:49:47.787Z,15.60
2018-01-24T11:52:15.330Z,15.81
2018-01-24T11:54:42.838Z,15.80
2018-01-24T11:57:10.467Z,15.51
2018-01-24T11:59:37.958Z,15.53
2018-01-24T12:02:05.524Z,15.67
2018-01-24T12:04:33.056Z,15.66
2018-01-24T12:07:00.512Z,15.70
2018-01-24T12:09:28.093Z,15.53
2018-01-24T12:11:55.680Z,15.10
2018-01-24T12:14:23.367Z,14.68
2018-01-24T12:16:50.945Z,14.75
2018-01-24T12:19:18.544Z,15.16
2018-01-24T12:21:46.219Z,15.44
2018-01-24T12:24:13.694Z,15.37
2018-01-24T12:26:41.342Z,15.02
2018-01-24T12:29:08.992Z,14.80
2018-01-24T12:31:36.642Z,14.60
2018-01-24T12:34:04.173Z,14.27
2018-01-24T12:36:33.923Z,13.85
2018-01-24T12:39:01.490Z,13.45
2018-01-24T12:41:28.979Z,13.18
2018-01-24T12:43:57.612Z,13.01
2018-01-24T12:46:25.222Z,12.90
2018-01-24T12:48:52.774Z,12.76
2018-01-24T12:51:20.350Z,12.64
2018-01-24T12:53:48.200Z,12.62
2018-01-24T12:56:15.686Z,12.56
2018-01-24T12:58:43.314Z,12.58
2018-01-24T13:01:10.896Z,12.57
2018-01-24T13:03:38.384Z,12.51
2018-01-24T13:06:06.179Z,12.51
2018-01-24T13:08:33.783Z,12.50
2018-01-24T13:11:01.330Z,12.47
2018-01-24T13:13:29.123Z,12.44
2018-01-24T13:15:56.697Z,12.46
2018-01-24T13:18:24.299Z,12.47
2018-01-24T13:20:51.840Z,12.51
2018-01-24T13:23:19.601Z,12.55
2018-01-24T13:25:47.153Z,12.53
2018-01-24T13:28:14.714Z,12.51
2018-01-24T13:30:42.182Z,12.46
2018-01-24T13:33:09.671Z,12.42
2018-01-24T13:35:37.158Z,12.39
2018-01-24T13:38:04.749Z,12.37
2018-01-24T13:40:32.588Z,12.34
2018-01-24T13:43:00.155Z,12.34
2018-01-24T13:45:27.677Z,12.35
2018-01-24T13:47:55.294Z,12.33
2018-01-24T13:50:22.830Z,12.33
2018-01-24T13:52:50.394Z,12.32
2018-01-24T13:55:17.982Z,12.39
2018-01-24T13:57:45.598Z,12.45
2018-01-24T14:00:13.137Z,12.48
2018-01-24T14:02:41.517Z,12.51
2018-01-24T14:05:09.084Z,12.51
2018-01-24T14:07:37.450Z,12.53
2018-01-24T14:10:05.228Z,12.57
2018-01-24T14:12:32.982Z,12.60
2018-01-24T14:15:00.548Z,12.63
2018-01-24T14:17:28.182Z,12.60
2018-01-24T14:19:55.847Z,12.61
2018-01-24T14:22:23.385Z,12.58
2018-01-24T14:24:50.911Z,12.53
2018-01-24T14:27:18.384Z,12.53
2018-01-24T14:29:45.932Z,12.46
2018-01-24T14:32:13.565Z,12.41
2018-01-24T14:34:41.296Z,12.38
2018-01-24T14:37:08.800Z,12.32
2018-01-24T14:39:36.355Z,12.27
2018-01-24T14:42:03.899Z,12.24
2018-01-24T14:44:31.545Z,12.19
2018-01-24T14:46:59.226Z,12.16
2018-01-24T14:49:26.787Z,12.17
2018-01-24T14:51:54.289Z,12.14
2018-01-24T14:54:21.885Z,12.10
2018-01-24T14:56:49.480Z,12.08
2018-01-24T14:59:16.957Z,12.11
2018-01-24T15:01:44.705Z,12.08
2018-01-24T15:04:12.392Z,12.09
2018-01-24T15:06:39.994Z,12.08
2018-01-24T15:09:08.435Z,12.06
2018-01-24T15:11:36.137Z,12.05
2018-01-24T15:14:03.680Z,12.06
2018-01-24T15:16:31.204Z,12.03
2018-01-24T15:19:00.064Z,11.97
2018-01-24T15:21:27.940Z,11.93
2018-01-24T15:23:55.447Z,11.88
2018-01-24T15:26:23.164Z,11.88
2018-01-24T15:28:50.696Z,11.87
2018-01-24T15:31:18.233Z,11.77
2018-01-24T15:33:45.885Z,11.72
2018-01-24T15:36:13.484Z,11.65
2018-01-24T15:38:41.073Z,11.59
2018-01-24T15:41:08.527Z,11.56
2018-01-24T15:43:36.051Z,11.54
2018-01-24T15:46:03.639Z,11.46
2018-01-24T15:48:31.133Z,11.45
2018-01-24T15:50:58.755Z,11.41
2018-01-24T15:53:26.300Z,11.39
2018-01-24T15:55:54.081Z,11.36
2018-01-24T15:58:21.617Z,11.38
2018-01-24T16:00:49.090Z,11.36
2018-01-24T16:03:16.544Z,11.31
2018-01-24T16:05:44.042Z,11.31
2018-01-24T16:08:11.828Z,11.30
2018-01-24T16:10:39.443Z,11.27
2018-01-24T16:13:06.954Z,11.25
2018-01-24T16:15:34.630Z,11.23
2018-01-24T16:18:02.208Z,11.16
2018-01-24T16:20:29.776Z,11.17
2018-01-24T16:22:57.418Z,11.16
2018-01-24T16:25:24.999Z,11.13
2018-01-24T16:27:52.535Z,11.12
2018-01-24T16:30:20.262Z,11.08
2018-01-24T16:32:48.104Z,11.07
2018-01-24T16:35:16.457Z,11.06
2018-01-24T16:37:44.020Z,11.06
2018-01-24T16:40:11.718Z,11.09
2018-01-24T16:42:39.304Z,11.06
2018-01-24T16:45:06.873Z,11.06
2018-01-24T16:47:34.391Z,11.04
2018-01-24T16:50:01.972Z,11.04
2018-01-24T16:52:29.608Z,11.03
2018-01-24T16:54:57.204Z,11.03
2018-01-24T16:57:24.737Z,11.02
2018-01-24T16:59:52.278Z,11.03
2018-01-24T17:02:20.206Z,11.01
2018-01-24T17:04:47.724Z,11.03
2018-01-24T17:07:15.275Z,11.00
2018-01-24T17:09:42.842Z,11.00
2018-01-24T17:12:10.447Z,10.99
2018-01-24T17:14:38.070Z,11.01
2018-01-24T17:17:05.676Z,10.99
2018-01-24T17:19:33.283Z,10.99
2018-01-24T17:22:00.847Z,10.97
2018-01-24T17:24:28.493Z,10.97
2018-01-24T17:26:56.050Z,10.98
2018-01-24T17:29:23.687Z,10.98
2018-01-24T17:31:51.231Z,10.96
2018-01-24T17:34:18.733Z,10.94
2018-01-24T17:36:46.293Z,10.95
2018-01-24T17:39:13.783Z,10.92
2018-01-24T17:41:41.416Z,10.90
2018-01-24T17:44:09.004Z,10.91
2018-01-24T17:46:36.620Z,10.90
2018-01-24T17:49:04.126Z,10.88
2018-01-24T17:51:31.594Z,10.89
2018-01-24T17:53:59.131Z,10.90
2018-01-24T17:56:26.981Z,10.91
2018-01-24T17:58:54.667Z,10.90
2018-01-24T18:01:22.286Z,10.92
2018-01-24T18:03:49.936Z,10.93
2018-01-24T18:06:17.503Z,10.95
2018-01-24T18:08:45.430Z,10.94
2018-01-24T18:11:13.356Z,10.96
2018-01-24T18:13:41.194Z,10.98
2018-01-24T18:16:08.870Z,11.00
2018-01-24T18:18:36.530Z,11.00
2018-01-24T18:21:04.015Z,11.04
2018-01-24T18:23:31.489Z,11.05
2018-01-24T18:25:59.036Z,11.06
2018-01-24T18:28:26.551Z,11.08
2018-01-24T18:30:54.077Z,11.08
2018-01-24T18:33:21.662Z,11.08
2018-01-24T18:35:49.313Z,11.10
2018-01-24T18:38:17.121Z,11.07
2018-01-24T18:40:44.774Z,11.05
2018-01-24T18:43:12.698Z,11.05
2018-01-24T18:45:40.434Z,11.07
2018-01-24T18:48:08.033Z,11.06
2018-01-24T18:50:35.660Z,11.04
2018-01-24T18:53:03.233Z,11.02
2018-01-24T18:55:31.018Z,11.03
2018-01-24T18:57:58.531Z,11.01
2018-01-24T19:00:26.228Z,10.99
2018-01-24T19:02:53.824Z,11.02
2018-01-24T19:05:21.324Z,11.01
2018-01-24T19:07:48.938Z,10.97
2018-01-24T19:10:16.802Z,11.03
2018-01-24T19:12:44.787Z,11.05
2018-01-24T19:15:12.560Z,11.02
2018-01-24T19:17:40.165Z,11.01
2018-01-24T19:20:07.695Z,11.01
2018-01-24T19:22:35.347Z,10.95
2018-01-24T19:25:03.230Z,10.94
2018-01-24T19:27:30.904Z,10.90
2018-01-24T19:29:58.577Z,10.88
2018-01-24T19:32:26.127Z,10.87
2018-01-24T19:34:53.779Z,10.87
2018-01-24T19:37:21.473Z,10.82
2018-01-24T19:39:49.508Z,10.75
2018-01-24T19:42:17.171Z,10.76
2018-01-24T19:44:44.731Z,10.77
2018-01-24T19:47:12.306Z,10.70
2018-01-24T19:49:40.809Z,10.72
2018-01-24T19:52:13.549Z,10.65
2018-01-24T19:54:41.203Z,10.61
2018-01-24T19:57:08.807Z,10.55
2018-01-24T19:59:36.381Z,10.54
2018-01-24T20:02:04.046Z,10.55
2018-01-24T20:04:31.616Z,10.52
2018-01-24T20:06:59.169Z,10.48
2018-01-24T20:09:27.045Z,10.48
2018-01-24T20:11:55.855Z,10.44
2018-01-24T20:14:23.366Z,10.46
2018-01-24T20:16:51.083Z,10.45
2018-01-24T20:19:18.625Z,10.41
2018-01-24T20:21:46.371Z,10.39
2018-01-24T20:24:13.955Z,10.44
2018-01-24T20:26:41.528Z,10.47
2018-01-24T20:29:09.108Z,10.43
2018-01-24T20:31:36.750Z,10.43
2018-01-24T20:34:04.743Z,10.44
2018-01-24T20:36:32.400Z,10.45
2018-01-24T20:38:59.926Z,10.41
2018-01-24T20:41:28.184Z,10.48
2018-01-24T20:43:56.244Z,10.50
2018-01-24T20:46:23.722Z,10.47
2018-01-24T20:48:51.772Z,10.47
2018-01-24T20:51:19.472Z,10.44
2018-01-24T20:53:47.186Z,10.42
2018-01-24T20:56:18.363Z,10.41
2018-01-24T20:58:45.927Z,10.42
2018-01-24T21:01:13.551Z,10.46
2018-01-24T21:03:41.019Z,10.50
2018-01-24T21:06:08.493Z,10.52
2018-01-24T21:08:36.090Z,10.51
2018-01-24T21:11:03.690Z,10.53
2018-01-24T21:13:31.192Z,10.54
2018-01-24T21:15:58.762Z,10.57
2018-01-24T21:18:26.317Z,10.57
2018-01-24T21:20:53.853Z,10.54
2018-01-24T21:23:21.479Z,10.56
2018-01-24T21:25:49.050Z,10.55
2018-01-24T21:28:16.544Z,10.56
2018-01-24T21:30:55.950Z,10.55
2018-01-24T21:33:35.497Z,10.56
2018-01-24T21:36:03.021Z,10.56
2018-01-24T21:38:30.575Z,10.57
2018-01-24T21:40:58.163Z,10.55
2018-01-24T21:43:25.673Z,10.58
2018-01-24T21:45:54.091Z,10.61
2018-01-24T21:48:21.647Z,10.59
2018-01-24T21:50:49.120Z,10.60
2018-01-24T21:53:16.685Z,10.61
2018-01-24T21:55:44.199Z,10.62
2018-01-24T21:58:11.761Z,10.63
2018-01-24T22:00:39.326Z,10.62
2018-01-24T22:03:06.803Z,10.63
2018-01-24T22:05:34.308Z,10.63
2018-01-24T22:08:01.779Z,10.63
2018-01-24T22:10:29.244Z,10.63
2018-01-24T22:12:56.822Z,10.59
2018-01-24T22:15:24.393Z,10.58
2018-01-24T22:17:52.702Z,10.65
2018-01-24T22:20:20.263Z,10.75
2018-01-24T22:22:47.935Z,10.82
2018-01-24T22:25:15.434Z,10.88
2018-01-24T22:27:42.942Z,10.94
2018-01-24T22:30:10.476Z,10.94
2018-01-24T22:32:37.942Z,10.97
2018-01-24T22:35:06.343Z,10.98
2018-01-24T22:37:33.859Z,10.97
2018-01-24T22:40:01.378Z,10.97
2018-01-24T22:42:28.924Z,10.96
2018-01-24T22:44:56.425Z,10.98
2018-01-24T22:47:23.909Z,11.01
2018-01-24T22:49:51.419Z,11.00
2018-01-24T22:52:19.532Z,10.97
2018-01-24T22:54:47.007Z,10.98
2018-01-24T22:57:14.551Z,11.00
2018-01-24T22:59:42.032Z,10.97
2018-01-24T23:02:09.694Z,11.00
2018-01-24T23:04:37.161Z,11.00
2018-01-24T23:07:05.380Z,10.94
2018-01-24T23:09:32.859Z,10.93
2018-01-24T23:12:00.632Z,10.91
2018-01-24T23:14:28.152Z,10.89
2018-01-24T23:16:55.677Z,10.91
2018-01-24T23:19:23.173Z,10.93
2018-01-24T23:22:10.123Z,10.92
2018-01-24T23:24:37.777Z,10.91
2018-01-24T23:27:05.629Z,10.89
2018-01-24T23:29:33.099Z,10.77
2018-01-24T23:32:01.299Z,10.68
2018-01-24T23:34:28.805Z,10.61
2018-01-24T23:36:56.261Z,10.55
2018-01-24T23:39:23.741Z,10.53
2018-01-24T23:41:56.239Z,10.52
2018-01-24T23:44:23.681Z,10.51
2018-01-24T23:46:51.159Z,10.51
2018-01-24T23:49:18.737Z,10.50
2018-01-24T23:51:47.180Z,10.49
2018-01-24T23:54:19.015Z,10.52
2018-01-24T23:56:47.766Z,10.53
2018-01-24T23:59:15.337Z,10.55
